Time,TemperatureF,DewpointF,PressureIn,WindDirection,WindDirectionDegrees,WindSpeedMPH,WindSpeedGustMPH,Humidity,HourlyPrecipIn,Conditions,Clouds,dailyrainin,SoftwareType,DateUTC
2013-07-12 00:01:00,74.4,71.6,29.88,West,278,1.0,2.0,91,0.00,,,0.00,Wunderground v.1.15,2013-07-12 04:01:00,
2013-07-12 00:02:00,74.4,71.6,29.88,West,278,1.0,2.0,91,0.00,,,0.00,Wunderground v.1.15,2013-07-12 04:02:00,
2013-07-12 00:04:00,74.4,71.6,29.88,West,278,1.0,2.0,91,0.00,,,0.00,Wunderground v.1.15,2013-07-12 04:04:00,
2013-07-12 00:07:00,74.3,71.5,29.88,West,278,1.0,2.0,91,0.00,,,0.00,Wunderground v.1.15,2013-07-12 04:07:00,
2013-07-12 00:13:00,73.7,70.9,29.89,West,278,1.0,1.0,91,0.00,,,0.01,Wunderground v.1.15,2013-07-12 04:13:00,
2013-07-12 00:14:00,73.6,71.1,29.89,West,278,1.0,1.0,92,0.00,,,0.01,Wunderground v.1.15,2013-07-12 04:14:00,
2013-07-12 00:20:00,73.3,70.8,29.89,East,96,0.0,1.0,92,0.00,,,0.01,Wunderground v.1.15,2013-07-12 04:20:00,
2013-07-12 00:26:00,72.8,70.0,29.89,NE,52,3.0,9.0,91,0.14,,,0.02,Wunderground v.1.15,2013-07-12 04:26:00,
2013-07-12 00:31:00,71.9,68.5,29.90,East,98,2.0,3.0,89,0.20,,,0.05,Wunderground v.1.15,2013-07-12 04:31:00,
2013-07-12 00:36:00,70.6,67.2,29.90,West,272,0.0,3.0,89,1.25,,,0.08,Wunderground v.1.15,2013-07-12 04:36:00,
2013-07-12 00:42:00,69.1,66.0,29.90,South,179,1.0,3.0,90,0.28,,,0.11,Wunderground v.1.15,2013-07-12 04:42:00,
2013-07-12 00:47:00,68.2,65.5,29.90,WNW,297,0.0,4.0,91,0.19,,,0.12,Wunderground v.1.15,2013-07-12 04:47:00,
2013-07-12 00:53:00,67.4,65.3,29.91,WNW,286,2.0,2.0,93,1.92,,,0.17,Wunderground v.1.15,2013-07-12 04:53:00,
2013-07-12 00:59:00,67.1,65.3,29.91,WNW,286,0.0,2.0,94,0.28,,,0.22,Wunderground v.1.15,2013-07-12 04:59:00,
2013-07-12 01:04:00,67.2,65.7,29.90,WNW,286,0.0,1.0,95,0.14,,,0.23,Wunderground v.1.15,2013-07-12 05:04:00,
2013-07-12 01:10:00,67.5,66.0,29.90,WNW,286,0.0,0.0,95,0.40,,,0.26,Wunderground v.1.15,2013-07-12 05:10:00,
2013-07-12 01:15:00,67.8,66.3,29.89,East,84,1.0,2.0,95,0.24,,,0.28,Wunderground v.1.15,2013-07-12 05:15:00,
2013-07-12 01:20:00,68.1,66.6,29.90,East,84,0.0,1.0,95,0.13,,,0.29,Wunderground v.1.15,2013-07-12 05:20:00,
2013-07-12 01:26:00,68.3,66.8,29.91,SE,145,0.0,3.0,95,0.11,,,0.31,Wunderground v.1.15,2013-07-12 05:26:00,
2013-07-12 01:31:00,68.2,66.7,29.91,West,263,3.0,3.0,95,0.17,,,0.32,Wunderground v.1.15,2013-07-12 05:31:00,
2013-07-12 01:36:00,68.1,66.6,29.91,NNW,340,1.0,3.0,95,0.15,,,0.34,Wunderground v.1.15,2013-07-12 05:36:00,
2013-07-12 01:42:00,67.8,66.3,29.90,WNW,299,2.0,2.0,95,0.24,,,0.36,Wunderground v.1.15,2013-07-12 05:42:00,
2013-07-12 01:47:00,67.6,66.1,29.89,NNW,335,3.0,3.0,95,0.35,,,0.39,Wunderground v.1.15,2013-07-12 05:47:00,
2013-07-12 01:52:00,66.7,65.2,29.89,West,259,3.0,4.0,95,0.16,,,0.40,Wunderground v.1.15,2013-07-12 05:52:00,
2013-07-12 01:58:00,66.4,64.9,29.89,West,271,3.0,4.0,95,0.20,,,0.42,Wunderground v.1.15,2013-07-12 05:58:00,
2013-07-12 02:03:00,66.5,65.0,29.89,WNW,291,1.0,4.0,95,0.12,,,0.43,Wunderground v.1.15,2013-07-12 06:03:00,
2013-07-12 02:08:00,66.8,65.3,29.89,WSW,248,5.0,5.0,95,0.18,,,0.45,Wunderground v.1.15,2013-07-12 06:08:00,
2013-07-12 02:13:00,67.0,65.8,29.90,WNW,282,4.0,8.0,96,0.46,,,0.47,Wunderground v.1.15,2013-07-12 06:13:00,
2013-07-12 02:18:00,67.2,66.0,29.90,WNW,282,5.0,8.0,96,0.21,,,0.49,Wunderground v.1.15,2013-07-12 06:18:00,
2013-07-12 02:23:00,67.6,66.4,29.90,West,269,7.0,8.0,96,0.16,,,0.50,Wunderground v.1.15,2013-07-12 06:23:00,
2013-07-12 02:28:00,68.0,66.8,29.90,WNW,284,8.0,9.0,96,0.44,,,0.53,Wunderground v.1.15,2013-07-12 06:28:00,
2013-07-12 02:33:00,68.3,67.1,29.91,WNW,298,4.0,7.0,96,0.26,,,0.55,Wunderground v.1.15,2013-07-12 06:33:00,
2013-07-12 02:38:00,68.3,67.1,29.92,WNW,288,5.0,7.0,96,0.33,,,0.58,Wunderground v.1.15,2013-07-12 06:38:00,
2013-07-12 02:43:00,68.1,66.9,29.92,West,281,3.0,8.0,96,1.13,,,0.65,Wunderground v.1.15,2013-07-12 06:43:00,
2013-07-12 02:48:00,67.9,66.7,29.91,WNW,298,3.0,8.0,96,1.57,,,0.72,Wunderground v.1.15,2013-07-12 06:48:00,
2013-07-12 02:53:00,67.8,66.6,29.91,NW,306,4.0,8.0,96,0.59,,,0.80,Wunderground v.1.15,2013-07-12 06:53:00,
2013-07-12 02:58:00,67.6,66.4,29.91,West,280,2.0,8.0,96,1.07,,,0.87,Wunderground v.1.15,2013-07-12 06:58:00,
2013-07-12 03:04:00,67.6,66.4,29.91,WNW,283,4.0,6.0,96,0.42,,,0.91,Wunderground v.1.15,2013-07-12 07:04:00,
2013-07-12 03:09:00,67.7,66.5,29.91,West,272,4.0,7.0,96,0.28,,,0.93,Wunderground v.1.15,2013-07-12 07:09:00,
2013-07-12 03:14:00,67.8,66.9,29.91,WNW,290,0.0,4.0,97,0.44,,,0.96,Wunderground v.1.15,2013-07-12 07:14:00,
2013-07-12 03:19:00,68.0,67.1,29.91,NW,304,4.0,5.0,97,0.69,,,1.00,Wunderground v.1.15,2013-07-12 07:19:00,
2013-07-12 03:24:00,68.1,66.9,29.90,West,277,7.0,11.0,96,0.35,,,1.05,Wunderground v.1.15,2013-07-12 07:24:00,
2013-07-12 03:29:00,68.0,66.8,29.90,WNW,292,4.0,11.0,96,0.29,,,1.07,Wunderground v.1.15,2013-07-12 07:29:00,
2013-07-12 03:34:00,67.9,66.7,29.91,West,279,3.0,6.0,96,0.27,,,1.09,Wunderground v.1.15,2013-07-12 07:34:00,
2013-07-12 03:39:00,67.9,67.0,29.90,West,267,7.0,7.0,97,0.40,,,1.12,Wunderground v.1.15,2013-07-12 07:39:00,
2013-07-12 03:44:00,67.8,66.9,29.91,WNW,286,4.0,7.0,97,0.44,,,1.16,Wunderground v.1.15,2013-07-12 07:44:00,
2013-07-12 03:49:00,67.7,66.8,29.91,WNW,289,4.0,8.0,97,0.42,,,1.20,Wunderground v.1.15,2013-07-12 07:49:00,
2013-07-12 03:54:00,67.6,66.4,29.91,WNW,298,4.0,6.0,96,0.39,,,1.23,Wunderground v.1.15,2013-07-12 07:54:00,
2013-07-12 03:59:00,67.5,66.3,29.91,West,280,4.0,6.0,96,0.31,,,1.26,Wunderground v.1.15,2013-07-12 07:59:00,
2013-07-12 04:04:00,67.4,66.2,29.91,WSW,256,4.0,6.0,96,0.29,,,1.29,Wunderground v.1.15,2013-07-12 08:04:00,
2013-07-12 04:09:00,67.2,66.3,29.92,NW,308,0.0,6.0,97,0.19,,,1.30,Wunderground v.1.15,2013-07-12 08:09:00,
2013-07-12 04:14:00,67.1,66.2,29.91,NW,315,2.0,3.0,97,0.16,,,1.32,Wunderground v.1.15,2013-07-12 08:14:00,
2013-07-12 04:19:00,67.1,66.2,29.91,NW,310,2.0,3.0,97,0.13,,,1.33,Wunderground v.1.15,2013-07-12 08:19:00,
2013-07-12 04:24:00,67.0,66.1,29.90,WNW,296,2.0,4.0,97,0.10,,,1.34,Wunderground v.1.15,2013-07-12 08:24:00,
2013-07-12 04:29:00,67.0,66.1,29.90,West,270,2.0,6.0,97,0.18,,,1.35,Wunderground v.1.15,2013-07-12 08:29:00,
2013-07-12 04:34:00,67.0,66.1,29.90,West,281,2.0,4.0,97,0.18,,,1.37,Wunderground v.1.15,2013-07-12 08:34:00,
2013-07-12 04:39:00,67.1,66.2,29.90,WNW,284,0.0,4.0,97,0.10,,,1.37,Wunderground v.1.15,2013-07-12 08:39:00,
2013-07-12 04:44:00,67.1,66.2,29.90,WNW,284,2.0,3.0,97,0.07,,,1.38,Wunderground v.1.15,2013-07-12 08:44:00,
2013-07-12 04:49:00,67.1,66.2,29.90,West,278,5.0,5.0,97,0.07,,,1.38,Wunderground v.1.15,2013-07-12 08:49:00,
2013-07-12 04:54:00,67.1,66.2,29.90,West,270,4.0,6.0,97,0.05,,,1.38,Wunderground v.1.15,2013-07-12 08:54:00,
2013-07-12 04:59:00,67.0,66.1,29.91,West,277,4.0,6.0,97,0.00,,,1.38,Wunderground v.1.15,2013-07-12 08:59:00,
2013-07-12 05:04:00,67.0,66.1,29.91,NW,305,2.0,4.0,97,0.00,,,1.38,Wunderground v.1.15,2013-07-12 09:04:00,
2013-07-12 05:09:00,67.0,66.1,29.91,WNW,292,2.0,4.0,97,0.00,,,1.38,Wunderground v.1.15,2013-07-12 09:09:00,
2013-07-12 05:15:00,67.1,66.2,29.91,West,281,3.0,4.0,97,0.00,,,1.38,Wunderground v.1.15,2013-07-12 09:15:00,
2013-07-12 05:20:00,67.1,66.2,29.91,West,281,4.0,4.0,97,0.00,,,1.39,Wunderground v.1.15,2013-07-12 09:20:00,
2013-07-12 05:25:00,67.0,66.1,29.91,West,278,3.0,5.0,97,0.00,,,1.39,Wunderground v.1.15,2013-07-12 09:25:00,
2013-07-12 05:30:00,67.0,66.1,29.91,West,274,2.0,3.0,97,0.00,,,1.39,Wunderground v.1.15,2013-07-12 09:30:00,
2013-07-12 05:35:00,66.9,66.0,29.91,West,277,1.0,7.0,97,0.00,,,1.39,Wunderground v.1.15,2013-07-12 09:35:00,
2013-07-12 05:40:00,66.9,66.0,29.91,West,281,5.0,5.0,97,0.00,,,1.39,Wunderground v.1.15,2013-07-12 09:40:00,
2013-07-12 05:45:00,66.9,66.0,29.91,WNW,282,4.0,5.0,97,0.00,,,1.39,Wunderground v.1.15,2013-07-12 09:45:00,
2013-07-12 05:50:00,66.9,66.0,29.92,WNW,287,1.0,4.0,97,0.00,,,1.39,Wunderground v.1.15,2013-07-12 09:50:00,
2013-07-12 05:55:00,66.9,66.0,29.92,West,281,2.0,4.0,97,0.00,,,1.40,Wunderground v.1.15,2013-07-12 09:55:00,
2013-07-12 06:00:00,66.8,65.9,29.92,West,278,3.0,4.0,97,0.00,,,1.40,Wunderground v.1.15,2013-07-12 10:00:00,
2013-07-12 06:05:00,66.7,65.8,29.92,WNW,296,2.0,5.0,97,0.00,,,1.40,Wunderground v.1.15,2013-07-12 10:05:00,
2013-07-12 06:10:00,66.7,65.8,29.92,WNW,291,2.0,3.0,97,0.05,,,1.41,Wunderground v.1.15,2013-07-12 10:10:00,
2013-07-12 06:15:00,66.7,65.8,29.92,West,265,4.0,4.0,97,0.09,,,1.42,Wunderground v.1.15,2013-07-12 10:15:00,
2013-07-12 06:20:00,66.7,65.8,29.91,West,276,3.0,3.0,97,0.08,,,1.42,Wunderground v.1.15,2013-07-12 10:20:00,
2013-07-12 06:25:00,66.6,65.7,29.92,WNW,285,3.0,6.0,97,0.05,,,1.42,Wunderground v.1.15,2013-07-12 10:25:00,
2013-07-12 06:30:00,66.5,65.6,29.91,West,281,2.0,4.0,97,0.04,,,1.43,Wunderground v.1.15,2013-07-12 10:30:00,
2013-07-12 06:35:00,66.5,65.6,29.92,NNW,335,1.0,4.0,97,0.04,,,1.43,Wunderground v.1.15,2013-07-12 10:35:00,
2013-07-12 06:40:00,66.5,65.6,29.92,NW,325,2.0,2.0,97,0.04,,,1.43,Wunderground v.1.15,2013-07-12 10:40:00,
2013-07-12 06:45:00,66.6,65.7,29.92,WNW,301,1.0,4.0,97,0.00,,,1.43,Wunderground v.1.15,2013-07-12 10:45:00,
2013-07-12 06:50:00,66.5,65.6,29.92,WNW,284,1.0,2.0,97,0.00,,,1.44,Wunderground v.1.15,2013-07-12 10:50:00,
2013-07-12 06:55:00,66.5,65.6,29.93,WNW,284,2.0,3.0,97,0.00,,,1.44,Wunderground v.1.15,2013-07-12 10:55:00,
2013-07-12 07:00:00,66.6,65.7,29.93,NW,319,2.0,2.0,97,0.00,,,1.44,Wunderground v.1.15,2013-07-12 11:00:00,
2013-07-12 07:05:00,66.5,65.6,29.93,NW,314,2.0,3.0,97,0.00,,,1.44,Wunderground v.1.15,2013-07-12 11:05:00,
2013-07-12 07:10:00,66.6,65.7,29.93,WNW,303,2.0,2.0,97,0.00,,,1.44,Wunderground v.1.15,2013-07-12 11:10:00,
2013-07-12 07:15:00,66.7,65.8,29.93,WNW,291,2.0,3.0,97,0.00,,,1.44,Wunderground v.1.15,2013-07-12 11:15:00,
2013-07-12 07:20:00,66.6,65.7,29.93,West,281,1.0,2.0,97,0.00,,,1.44,Wunderground v.1.15,2013-07-12 11:20:00,
2013-07-12 07:25:00,66.7,65.8,29.93,West,275,2.0,4.0,97,0.00,,,1.45,Wunderground v.1.15,2013-07-12 11:25:00,
2013-07-12 07:30:00,66.7,65.8,29.94,West,273,3.0,4.0,97,0.00,,,1.45,Wunderground v.1.15,2013-07-12 11:30:00,
2013-07-12 07:35:00,66.7,65.8,29.94,WNW,285,2.0,5.0,97,0.00,,,1.45,Wunderground v.1.15,2013-07-12 11:35:00,
2013-07-12 07:40:00,66.7,65.8,29.94,West,273,5.0,5.0,97,0.04,,,1.46,Wunderground v.1.15,2013-07-12 11:40:00,
2013-07-12 07:45:00,66.7,65.8,29.94,West,278,3.0,5.0,97,0.04,,,1.46,Wunderground v.1.15,2013-07-12 11:45:00,
2013-07-12 07:51:00,66.7,65.8,29.94,WNW,292,3.0,3.0,97,0.04,,,1.46,Wunderground v.1.15,2013-07-12 11:51:00,
2013-07-12 07:56:00,66.7,65.8,29.94,WNW,292,1.0,3.0,97,0.00,,,1.47,Wunderground v.1.15,2013-07-12 11:56:00,
2013-07-12 08:01:00,66.7,65.8,29.94,WNW,292,0.0,2.0,97,0.00,,,1.47,Wunderground v.1.15,2013-07-12 12:01:00,
2013-07-12 08:06:00,66.8,65.9,29.94,West,276,0.0,2.0,97,0.00,,,1.47,Wunderground v.1.15,2013-07-12 12:06:00,
2013-07-12 08:11:00,66.7,65.8,29.94,North,353,0.0,1.0,97,0.04,,,1.48,Wunderground v.1.15,2013-07-12 12:11:00,
2013-07-12 08:16:00,66.6,65.7,29.94,WNW,300,0.0,1.0,97,0.04,,,1.48,Wunderground v.1.15,2013-07-12 12:16:00,
2013-07-12 08:21:00,66.7,65.8,29.94,WNW,300,0.0,2.0,97,0.07,,,1.49,Wunderground v.1.15,2013-07-12 12:21:00,
2013-07-12 08:26:00,66.8,65.9,29.94,WNW,299,0.0,2.0,97,0.06,,,1.49,Wunderground v.1.15,2013-07-12 12:26:00,
2013-07-12 08:31:00,66.8,65.9,29.94,SW,233,2.0,2.0,97,0.06,,,1.50,Wunderground v.1.15,2013-07-12 12:31:00,
2013-07-12 08:36:00,66.8,65.9,29.93,WSW,240,0.0,2.0,97,0.06,,,1.50,Wunderground v.1.15,2013-07-12 12:36:00,
2013-07-12 08:41:00,67.0,66.1,29.93,WSW,248,0.0,1.0,97,0.05,,,1.51,Wunderground v.1.15,2013-07-12 12:41:00,
2013-07-12 08:46:00,66.9,66.0,29.92,WSW,248,3.0,4.0,97,0.05,,,1.51,Wunderground v.1.15,2013-07-12 12:46:00,
2013-07-12 08:51:00,66.9,66.0,29.92,SSW,212,2.0,2.0,97,0.05,,,1.51,Wunderground v.1.15,2013-07-12 12:51:00,
2013-07-12 08:56:00,66.9,66.0,29.92,NW,322,1.0,4.0,97,0.04,,,1.52,Wunderground v.1.15,2013-07-12 12:56:00,
2013-07-12 09:01:00,66.9,66.0,29.92,West,277,0.0,2.0,97,0.04,,,1.52,Wunderground v.1.15,2013-07-12 13:01:00,
2013-07-12 09:06:00,67.0,66.1,29.92,WNW,303,0.0,3.0,97,0.04,,,1.52,Wunderground v.1.15,2013-07-12 13:06:00,
2013-07-12 09:11:00,67.1,66.2,29.92,WNW,294,1.0,1.0,97,0.00,,,1.52,Wunderground v.1.15,2013-07-12 13:11:00,
2013-07-12 09:16:00,67.2,66.3,29.92,WNW,294,1.0,5.0,97,0.00,,,1.52,Wunderground v.1.15,2013-07-12 13:16:00,
2013-07-12 09:21:00,67.2,66.3,29.92,WSW,252,1.0,2.0,97,0.00,,,1.52,Wunderground v.1.15,2013-07-12 13:21:00,
2013-07-12 09:27:00,67.3,66.4,29.93,NNW,344,0.0,3.0,97,0.00,,,1.52,Wunderground v.1.15,2013-07-12 13:27:00,
2013-07-12 09:32:00,67.4,66.5,29.93,NE,40,0.0,3.0,97,0.00,,,1.53,Wunderground v.1.15,2013-07-12 13:32:00,
2013-07-12 09:37:00,67.4,66.5,29.92,ENE,69,5.0,6.0,97,0.00,,,1.53,Wunderground v.1.15,2013-07-12 13:37:00,
2013-07-12 09:42:00,67.5,66.6,29.92,East,80,4.0,8.0,97,0.00,,,1.53,Wunderground v.1.15,2013-07-12 13:42:00,
2013-07-12 09:47:00,67.6,66.7,29.92,West,276,3.0,8.0,97,0.00,,,1.53,Wunderground v.1.15,2013-07-12 13:47:00,
2013-07-12 09:52:00,67.8,66.9,29.92,East,90,2.0,5.0,97,0.00,,,1.53,Wunderground v.1.15,2013-07-12 13:52:00,
2013-07-12 09:57:00,68.0,67.1,29.92,NNE,33,2.0,5.0,97,0.00,,,1.53,Wunderground v.1.15,2013-07-12 13:57:00,
2013-07-12 10:02:00,68.3,67.1,29.92,South,186,1.0,3.0,96,0.00,,,1.53,Wunderground v.1.15,2013-07-12 14:02:00,
2013-07-12 10:07:00,68.5,67.3,29.92,South,186,0.0,3.0,96,0.00,,,1.53,Wunderground v.1.15,2013-07-12 14:07:00,
2013-07-12 10:12:00,69.0,67.8,29.93,WSW,244,3.0,4.0,96,0.00,,,1.53,Wunderground v.1.15,2013-07-12 14:12:00,
2013-07-12 10:17:00,68.8,67.6,29.93,NNW,330,1.0,4.0,96,0.00,,,1.53,Wunderground v.1.15,2013-07-12 14:17:00,
2013-07-12 10:22:00,68.8,67.6,29.93,East,97,0.0,3.0,96,0.00,,,1.53,Wunderground v.1.15,2013-07-12 14:22:00,
2013-07-12 10:27:00,69.0,67.8,29.93,East,81,1.0,5.0,96,0.00,,,1.53,Wunderground v.1.15,2013-07-12 14:27:00,
2013-07-12 10:32:00,68.8,67.6,29.93,NNW,335,1.0,3.0,96,0.00,,,1.53,Wunderground v.1.15,2013-07-12 14:32:00,
2013-07-12 10:37:00,69.1,67.9,29.94,West,271,1.0,4.0,96,0.00,,,1.53,Wunderground v.1.15,2013-07-12 14:37:00,
2013-07-12 10:42:00,69.0,67.8,29.94,North,352,1.0,2.0,96,0.00,,,1.53,Wunderground v.1.15,2013-07-12 14:42:00,
2013-07-12 10:47:00,69.1,67.9,29.95,North,352,2.0,2.0,96,0.00,,,1.53,Wunderground v.1.15,2013-07-12 14:47:00,
2013-07-12 10:52:00,68.9,67.7,29.95,NW,307,0.0,4.0,96,0.00,,,1.53,Wunderground v.1.15,2013-07-12 14:52:00,
2013-07-12 10:57:00,68.7,67.5,29.95,WSW,258,3.0,4.0,96,0.00,,,1.53,Wunderground v.1.15,2013-07-12 14:57:00,
2013-07-12 11:02:00,68.5,67.3,29.95,West,268,1.0,2.0,96,0.00,,,1.53,Wunderground v.1.15,2013-07-12 15:02:00,
2013-07-12 11:07:00,68.8,67.6,29.96,NW,319,0.0,3.0,96,0.00,,,1.53,Wunderground v.1.15,2013-07-12 15:07:00,
2013-07-12 11:12:00,68.6,67.4,29.96,NW,319,0.0,2.0,96,0.00,,,1.53,Wunderground v.1.15,2013-07-12 15:12:00,
2013-07-12 11:17:00,68.4,67.2,29.97,NW,319,0.0,2.0,96,0.00,,,1.53,Wunderground v.1.15,2013-07-12 15:17:00,
2013-07-12 11:22:00,68.5,67.3,29.96,NW,304,0.0,2.0,96,0.00,,,1.53,Wunderground v.1.15,2013-07-12 15:22:00,
2013-07-12 11:27:00,68.5,67.3,29.96,WNW,300,1.0,3.0,96,0.00,,,1.53,Wunderground v.1.15,2013-07-12 15:27:00,
2013-07-12 11:32:00,68.5,67.3,29.96,WNW,285,0.0,1.0,96,0.00,,,1.53,Wunderground v.1.15,2013-07-12 15:32:00,
2013-07-12 11:37:00,68.4,67.2,29.97,WNW,285,0.0,1.0,96,0.00,,,1.53,Wunderground v.1.15,2013-07-12 15:37:00,
2013-07-12 11:42:00,68.3,67.1,29.97,WNW,285,0.0,1.0,96,0.00,,,1.53,Wunderground v.1.15,2013-07-12 15:42:00,
2013-07-12 11:47:00,68.3,67.1,29.97,WNW,286,2.0,2.0,96,0.00,,,1.53,Wunderground v.1.15,2013-07-12 15:47:00,
2013-07-12 11:52:00,68.4,67.2,29.97,WNW,285,0.0,2.0,96,0.00,,,1.53,Wunderground v.1.15,2013-07-12 15:52:00,
2013-07-12 11:57:00,68.5,67.3,29.97,WNW,286,2.0,2.0,96,0.00,,,1.53,Wunderground v.1.15,2013-07-12 15:57:00,
2013-07-12 12:02:00,68.4,67.2,29.97,WNW,285,1.0,2.0,96,0.00,,,1.53,Wunderground v.1.15,2013-07-12 16:02:00,
2013-07-12 12:07:00,68.6,67.4,29.97,WNW,286,3.0,3.0,96,0.00,,,1.53,Wunderground v.1.15,2013-07-12 16:07:00,
2013-07-12 12:13:00,68.6,67.4,29.97,NNW,335,0.0,2.0,96,0.00,,,1.53,Wunderground v.1.15,2013-07-12 16:13:00,
2013-07-12 12:18:00,68.6,67.4,29.97,NNW,335,0.0,2.0,96,0.00,,,1.53,Wunderground v.1.15,2013-07-12 16:18:00,
2013-07-12 12:23:00,68.6,67.4,29.97,NNW,330,0.0,3.0,96,0.00,,,1.53,Wunderground v.1.15,2013-07-12 16:23:00,
2013-07-12 12:28:00,68.6,67.4,29.97,NNW,330,1.0,3.0,96,0.00,,,1.53,Wunderground v.1.15,2013-07-12 16:28:00,
2013-07-12 12:33:00,68.7,67.5,29.97,NNW,330,2.0,3.0,96,0.00,,,1.53,Wunderground v.1.15,2013-07-12 16:33:00,
2013-07-12 12:38:00,68.8,67.6,29.97,NW,325,1.0,3.0,96,0.00,,,1.53,Wunderground v.1.15,2013-07-12 16:38:00,
2013-07-12 12:43:00,68.8,67.6,29.97,NW,325,0.0,2.0,96,0.00,,,1.53,Wunderground v.1.15,2013-07-12 16:43:00,
2013-07-12 12:48:00,69.0,67.8,29.97,NNE,22,1.0,2.0,96,0.00,,,1.53,Wunderground v.1.15,2013-07-12 16:48:00,
2013-07-12 12:53:00,69.1,67.9,29.97,North,8,0.0,1.0,96,0.00,,,1.53,Wunderground v.1.15,2013-07-12 16:53:00,
2013-07-12 12:59:00,69.2,68.0,29.97,North,7,0.0,3.0,96,0.00,,,1.53,Wunderground v.1.15,2013-07-12 16:59:00,
2013-07-12 13:04:00,69.4,68.2,29.97,East,98,3.0,3.0,96,0.00,,,1.53,Wunderground v.1.15,2013-07-12 17:04:00,
2013-07-12 13:09:00,69.9,68.7,29.96,SE,141,2.0,3.0,96,0.00,,,1.53,Wunderground v.1.15,2013-07-12 17:09:00,
2013-07-12 13:14:00,69.9,68.7,29.97,West,261,4.0,4.0,96,0.00,,,1.53,Wunderground v.1.15,2013-07-12 17:14:00,
2013-07-12 13:20:00,70.1,68.9,29.97,WSW,251,1.0,2.0,96,0.00,,,1.53,Wunderground v.1.15,2013-07-12 17:20:00,
2013-07-12 13:25:00,69.9,68.7,29.97,WNW,296,3.0,5.0,96,0.00,,,1.53,Wunderground v.1.15,2013-07-12 17:25:00,
2013-07-12 13:30:00,70.4,69.2,29.97,WSW,256,2.0,2.0,96,0.00,,,1.53,Wunderground v.1.15,2013-07-12 17:30:00,
2013-07-12 13:35:00,70.2,68.7,29.97,ENE,76,2.0,6.0,95,0.00,,,1.53,Wunderground v.1.15,2013-07-12 17:35:00,
2013-07-12 13:40:00,70.2,68.7,29.96,NW,311,0.0,2.0,95,0.00,,,1.53,Wunderground v.1.15,2013-07-12 17:40:00,
2013-07-12 13:45:00,70.5,69.0,29.96,NNW,345,0.0,5.0,95,0.00,,,1.53,Wunderground v.1.15,2013-07-12 17:45:00,
2013-07-12 13:51:00,70.6,69.1,29.97,WNW,287,2.0,3.0,95,0.00,,,1.53,Wunderground v.1.15,2013-07-12 17:51:00,
2013-07-12 13:56:00,70.4,68.9,29.97,WNW,294,1.0,3.0,95,0.00,,,1.53,Wunderground v.1.15,2013-07-12 17:56:00,
2013-07-12 14:01:00,70.2,68.4,29.97,South,173,0.0,1.0,94,0.00,,,1.53,Wunderground v.1.15,2013-07-12 18:01:00,
2013-07-12 14:06:00,70.2,68.7,29.97,ENE,59,0.0,3.0,95,0.00,,,1.53,Wunderground v.1.15,2013-07-12 18:06:00,
2013-07-12 14:12:00,70.9,69.4,29.97,NW,316,1.0,1.0,95,0.00,,,1.53,Wunderground v.1.15,2013-07-12 18:12:00,
2013-07-12 14:17:00,72.0,70.5,29.97,WSW,252,2.0,3.0,95,0.00,,,1.53,Wunderground v.1.15,2013-07-12 18:17:00,
2013-07-12 14:22:00,71.5,69.4,29.97,NW,312,1.0,4.0,93,0.00,,,1.53,Wunderground v.1.15,2013-07-12 18:22:00,
2013-07-12 14:27:00,71.4,69.3,29.97,NE,42,2.0,4.0,93,0.00,,,1.53,Wunderground v.1.15,2013-07-12 18:27:00,
2013-07-12 14:32:00,72.1,70.0,29.97,WNW,296,1.0,3.0,93,0.00,,,1.53,Wunderground v.1.15,2013-07-12 18:32:00,
2013-07-12 14:37:00,72.4,69.9,29.97,NW,323,4.0,5.0,92,0.00,,,1.53,Wunderground v.1.15,2013-07-12 18:37:00,
2013-07-12 14:42:00,72.3,69.2,29.97,NW,306,2.0,2.0,90,0.00,,,1.53,Wunderground v.1.15,2013-07-12 18:42:00,
2013-07-12 14:47:00,72.7,70.2,29.97,WNW,300,1.0,3.0,92,0.00,,,1.53,Wunderground v.1.15,2013-07-12 18:47:00,
2013-07-12 14:53:00,72.1,69.3,29.97,NNW,330,1.0,3.0,91,0.00,,,1.53,Wunderground v.1.15,2013-07-12 18:53:00,
2013-07-12 14:58:00,71.9,69.1,29.97,West,264,3.0,4.0,91,0.00,,,1.53,Wunderground v.1.15,2013-07-12 18:58:00,
2013-07-12 15:03:00,72.0,69.5,29.97,West,277,2.0,4.0,92,0.00,,,1.53,Wunderground v.1.15,2013-07-12 19:03:00,
2013-07-12 15:08:00,72.0,69.2,29.97,NW,308,0.0,7.0,91,0.00,,,1.53,Wunderground v.1.15,2013-07-12 19:08:00,
2013-07-12 15:14:00,72.3,69.5,29.97,NW,326,0.0,2.0,91,0.00,,,1.53,Wunderground v.1.15,2013-07-12 19:14:00,
2013-07-12 15:19:00,72.7,69.9,29.97,NNE,16,2.0,2.0,91,0.00,,,1.53,Wunderground v.1.15,2013-07-12 19:19:00,
2013-07-12 15:24:00,73.0,70.2,29.97,SW,226,2.0,4.0,91,0.00,,,1.53,Wunderground v.1.15,2013-07-12 19:24:00,
2013-07-12 15:30:00,73.0,69.6,29.97,East,100,0.0,4.0,89,0.00,,,1.53,Wunderground v.1.15,2013-07-12 19:30:00,
2013-07-12 15:35:00,72.7,69.3,29.97,North,7,3.0,5.0,89,0.00,,,1.53,Wunderground v.1.15,2013-07-12 19:35:00,
2013-07-12 15:40:00,72.6,69.2,29.97,ENE,67,0.0,1.0,89,0.00,,,1.53,Wunderground v.1.15,2013-07-12 19:40:00,
2013-07-12 15:45:00,72.8,69.7,29.97,East,86,3.0,4.0,90,0.00,,,1.53,Wunderground v.1.15,2013-07-12 19:45:00,
2013-07-12 15:51:00,72.9,69.8,29.97,West,265,1.0,2.0,90,0.00,,,1.53,Wunderground v.1.15,2013-07-12 19:51:00,
2013-07-12 15:56:00,72.8,69.7,29.97,WNW,294,0.0,2.0,90,0.00,,,1.53,Wunderground v.1.15,2013-07-12 19:56:00,
2013-07-12 16:01:00,72.6,69.5,29.97,WNW,299,0.0,2.0,90,0.00,,,1.53,Wunderground v.1.15,2013-07-12 20:01:00,
2013-07-12 16:06:00,72.5,69.4,29.97,WNW,303,0.0,2.0,90,0.00,,,1.53,Wunderground v.1.15,2013-07-12 20:06:00,
2013-07-12 16:11:00,72.6,69.5,29.97,NNE,28,0.0,3.0,90,0.00,,,1.53,Wunderground v.1.15,2013-07-12 20:11:00,
2013-07-12 16:16:00,72.7,69.6,29.97,WSW,256,1.0,3.0,90,0.00,,,1.53,Wunderground v.1.15,2013-07-12 20:16:00,
2013-07-12 16:21:00,72.3,68.9,29.97,WSW,252,0.0,1.0,89,0.00,,,1.53,Wunderground v.1.15,2013-07-12 20:21:00,
2013-07-12 16:26:00,72.0,68.9,29.97,WNW,298,0.0,4.0,90,0.00,,,1.53,Wunderground v.1.15,2013-07-12 20:26:00,
2013-07-12 16:32:00,72.1,69.0,29.97,NNE,24,1.0,5.0,90,0.00,,,1.53,Wunderground v.1.15,2013-07-12 20:32:00,
2013-07-12 16:38:00,72.4,69.3,29.97,SE,130,0.0,5.0,90,0.00,,,1.53,Wunderground v.1.15,2013-07-12 20:38:00,
2013-07-12 16:44:00,72.5,69.1,29.97,ENE,64,2.0,2.0,89,0.00,,,1.53,Wunderground v.1.15,2013-07-12 20:44:00,
2013-07-12 16:49:00,72.6,69.2,29.97,SSE,158,0.0,2.0,89,0.00,,,1.53,Wunderground v.1.15,2013-07-12 20:49:00,
2013-07-12 16:54:00,72.5,69.4,29.97,North,5,1.0,2.0,90,0.00,,,1.53,Wunderground v.1.15,2013-07-12 20:54:00,
2013-07-12 17:00:00,72.4,69.0,29.97,ESE,113,0.0,2.0,89,0.00,,,1.53,Wunderground v.1.15,2013-07-12 21:00:00,
2013-07-12 17:05:00,72.3,68.9,29.97,ESE,117,0.0,2.0,89,0.00,,,1.53,Wunderground v.1.15,2013-07-12 21:05:00,
2013-07-12 17:10:00,72.3,69.2,29.97,WSW,250,2.0,2.0,90,0.00,,,1.53,Wunderground v.1.15,2013-07-12 21:10:00,
2013-07-12 17:15:00,72.1,69.0,29.97,WNW,302,0.0,2.0,90,0.00,,,1.53,Wunderground v.1.15,2013-07-12 21:15:00,
2013-07-12 17:20:00,71.9,69.1,29.97,WNW,301,0.0,1.0,91,0.00,,,1.53,Wunderground v.1.15,2013-07-12 21:20:00,
2013-07-12 17:27:00,71.7,68.9,29.97,WNW,302,0.0,1.0,91,0.00,,,1.53,Wunderground v.1.15,2013-07-12 21:27:00,
2013-07-12 17:32:00,71.5,68.7,29.97,WSW,256,1.0,3.0,91,0.00,,,1.53,Wunderground v.1.15,2013-07-12 21:32:00,
2013-07-12 17:37:00,71.3,68.5,29.98,SSE,157,0.0,4.0,91,0.00,,,1.53,Wunderground v.1.15,2013-07-12 21:37:00,
2013-07-12 17:42:00,71.2,68.4,29.97,North,10,0.0,2.0,91,0.00,,,1.53,Wunderground v.1.15,2013-07-12 21:42:00,
2013-07-12 17:48:00,71.0,68.6,29.98,NW,308,2.0,3.0,92,0.00,,,1.54,Wunderground v.1.15,2013-07-12 21:48:00,
2013-07-12 17:53:00,70.6,68.2,29.98,East,79,0.0,1.0,92,0.00,,,1.54,Wunderground v.1.15,2013-07-12 21:53:00,
2013-07-12 17:59:00,70.3,68.5,29.98,East,79,0.0,1.0,94,0.13,,,1.56,Wunderground v.1.15,2013-07-12 21:59:00,
2013-07-12 18:05:00,70.1,68.3,29.98,East,79,0.0,1.0,94,0.10,,,1.56,Wunderground v.1.15,2013-07-12 22:05:00,
2013-07-12 18:10:00,70.0,68.5,29.98,East,97,1.0,1.0,95,0.05,,,1.56,Wunderground v.1.15,2013-07-12 22:10:00,
2013-07-12 18:15:00,69.9,68.4,29.98,East,97,0.0,2.0,95,0.05,,,1.57,Wunderground v.1.15,2013-07-12 22:15:00,
2013-07-12 18:20:00,69.8,68.3,29.97,East,85,0.0,1.0,95,0.05,,,1.57,Wunderground v.1.15,2013-07-12 22:20:00,
2013-07-12 18:25:00,69.8,68.6,29.97,West,269,1.0,2.0,96,0.05,,,1.57,Wunderground v.1.15,2013-07-12 22:25:00,
2013-07-12 18:30:00,69.8,68.6,29.97,NW,322,0.0,1.0,96,0.00,,,1.57,Wunderground v.1.15,2013-07-12 22:30:00,
2013-07-12 18:35:00,69.8,68.6,29.97,NNW,340,0.0,3.0,96,0.00,,,1.57,Wunderground v.1.15,2013-07-12 22:35:00,
2013-07-12 18:40:00,69.8,68.6,29.97,NW,315,2.0,2.0,96,0.00,,,1.57,Wunderground v.1.15,2013-07-12 22:40:00,
2013-07-12 18:45:00,69.9,68.7,29.97,NW,315,1.0,2.0,96,0.00,,,1.57,Wunderground v.1.15,2013-07-12 22:45:00,
2013-07-12 18:51:00,69.9,68.7,29.97,NW,315,1.0,2.0,96,0.00,,,1.57,Wunderground v.1.15,2013-07-12 22:51:00,
2013-07-12 18:56:00,70.1,68.9,29.97,NW,315,1.0,2.0,96,0.00,,,1.57,Wunderground v.1.15,2013-07-12 22:56:00,
2013-07-12 19:01:00,70.1,68.9,29.97,NW,315,0.0,1.0,96,0.00,,,1.57,Wunderground v.1.15,2013-07-12 23:01:00,
2013-07-12 19:06:00,70.3,69.1,29.97,NW,315,0.0,2.0,96,0.00,,,1.57,Wunderground v.1.15,2013-07-12 23:06:00,
2013-07-12 19:11:00,70.3,69.1,29.97,North,352,0.0,2.0,96,0.00,,,1.57,Wunderground v.1.15,2013-07-12 23:11:00,
2013-07-12 19:16:00,70.3,69.1,29.98,WSW,250,1.0,2.0,96,0.00,,,1.57,Wunderground v.1.15,2013-07-12 23:16:00,
2013-07-12 19:22:00,70.3,69.1,29.98,West,263,3.0,3.0,96,0.00,,,1.57,Wunderground v.1.15,2013-07-12 23:22:00,
2013-07-12 19:28:00,70.1,68.9,29.98,West,269,2.0,3.0,96,0.00,,,1.57,Wunderground v.1.15,2013-07-12 23:28:00,
2013-07-12 19:33:00,70.0,68.8,29.98,West,271,1.0,2.0,96,0.00,,,1.57,Wunderground v.1.15,2013-07-12 23:33:00,
2013-07-12 19:38:00,69.9,68.7,29.98,West,269,2.0,3.0,96,0.00,,,1.57,Wunderground v.1.15,2013-07-12 23:38:00,
2013-07-12 19:43:00,70.0,68.8,29.98,West,269,2.0,2.0,96,0.00,,,1.57,Wunderground v.1.15,2013-07-12 23:43:00,
2013-07-12 19:48:00,70.0,68.8,29.98,West,271,3.0,3.0,96,0.00,,,1.57,Wunderground v.1.15,2013-07-12 23:48:00,
2013-07-12 19:53:00,70.0,68.8,29.98,WNW,293,0.0,3.0,96,0.00,,,1.57,Wunderground v.1.15,2013-07-12 23:53:00,
2013-07-12 19:59:00,70.0,68.8,29.98,WNW,285,0.0,3.0,96,0.00,,,1.57,Wunderground v.1.15,2013-07-12 23:59:00,
2013-07-12 20:04:00,70.0,68.8,29.98,WNW,296,0.0,1.0,96,0.00,,,1.57,Wunderground v.1.15,2013-07-13 00:04:00,
2013-07-12 20:09:00,70.0,68.5,29.99,WNW,296,0.0,1.0,95,0.00,,,1.57,Wunderground v.1.15,2013-07-13 00:09:00,
2013-07-12 20:15:00,70.1,68.6,29.99,NW,314,0.0,0.0,95,0.00,,,1.57,Wunderground v.1.15,2013-07-13 00:15:00,
2013-07-12 20:20:00,70.1,68.6,29.98,WNW,300,0.0,0.0,95,0.00,,,1.57,Wunderground v.1.15,2013-07-13 00:20:00,
2013-07-12 20:25:00,70.1,68.6,29.98,WNW,286,0.0,0.0,95,0.00,,,1.57,Wunderground v.1.15,2013-07-13 00:25:00,
2013-07-12 20:30:00,70.2,68.7,29.98,WNW,286,0.0,0.0,95,0.00,,,1.57,Wunderground v.1.15,2013-07-13 00:30:00,
2013-07-12 20:35:00,70.1,68.6,29.98,West,276,0.0,0.0,95,0.00,,,1.57,Wunderground v.1.15,2013-07-13 00:35:00,
2013-07-12 20:40:00,70.1,68.6,29.98,West,276,0.0,0.0,95,0.00,,,1.57,Wunderground v.1.15,2013-07-13 00:40:00,
2013-07-12 20:45:00,70.1,68.6,29.98,West,276,0.0,0.0,95,0.00,,,1.57,Wunderground v.1.15,2013-07-13 00:45:00,
2013-07-12 20:51:00,70.0,68.5,29.99,West,276,0.0,0.0,95,0.00,,,1.57,Wunderground v.1.15,2013-07-13 00:51:00,
2013-07-12 20:56:00,70.0,68.5,29.99,WNW,285,0.0,0.0,95,0.00,,,1.57,Wunderground v.1.15,2013-07-13 00:56:00,
2013-07-12 21:01:00,70.0,68.5,29.99,WNW,285,0.0,0.0,95,0.00,,,1.57,Wunderground v.1.15,2013-07-13 01:01:00,
2013-07-12 21:06:00,70.0,68.5,29.99,West,274,0.0,0.0,95,0.00,,,1.57,Wunderground v.1.15,2013-07-13 01:06:00,
2013-07-12 21:11:00,70.0,68.5,29.99,WNW,291,0.0,0.0,95,0.00,,,1.57,Wunderground v.1.15,2013-07-13 01:11:00,
2013-07-12 21:16:00,70.1,68.6,29.99,WNW,291,0.0,0.0,95,0.00,,,1.57,Wunderground v.1.15,2013-07-13 01:16:00,
2013-07-12 21:21:00,70.0,68.5,30.00,West,276,0.0,0.0,95,0.00,,,1.57,Wunderground v.1.15,2013-07-13 01:21:00,
2013-07-12 21:26:00,70.0,68.5,30.00,WNW,302,0.0,0.0,95,0.00,,,1.57,Wunderground v.1.15,2013-07-13 01:26:00,
2013-07-12 21:31:00,70.0,68.5,30.00,WNW,283,0.0,0.0,95,0.00,,,1.57,Wunderground v.1.15,2013-07-13 01:31:00,
2013-07-12 21:36:00,69.9,68.4,30.00,West,277,0.0,0.0,95,0.00,,,1.57,Wunderground v.1.15,2013-07-13 01:36:00,
2013-07-12 21:42:00,69.9,68.4,29.99,West,279,0.0,0.0,95,0.00,,,1.57,Wunderground v.1.15,2013-07-13 01:42:00,
2013-07-12 21:47:00,69.8,68.3,29.99,West,277,0.0,0.0,95,0.00,,,1.57,Wunderground v.1.15,2013-07-13 01:47:00,
2013-07-12 21:52:00,69.7,68.2,29.99,West,277,0.0,0.0,95,0.00,,,1.57,Wunderground v.1.15,2013-07-13 01:52:00,
2013-07-12 21:57:00,69.7,68.2,29.99,West,277,0.0,0.0,95,0.00,,,1.57,Wunderground v.1.15,2013-07-13 01:57:00,
2013-07-12 22:02:00,69.6,68.1,30.00,West,280,0.0,0.0,95,0.00,,,1.57,Wunderground v.1.15,2013-07-13 02:02:00,
2013-07-12 22:08:00,69.6,68.1,29.99,NW,306,0.0,0.0,95,0.00,,,1.57,Wunderground v.1.15,2013-07-13 02:08:00,
2013-07-12 22:13:00,69.5,68.0,29.99,West,273,0.0,0.0,95,0.00,,,1.57,Wunderground v.1.15,2013-07-13 02:13:00,
2013-07-12 22:18:00,69.4,67.9,30.00,West,273,0.0,0.0,95,0.00,,,1.57,Wunderground v.1.15,2013-07-13 02:18:00,
2013-07-12 22:23:00,69.4,67.9,30.00,West,277,0.0,0.0,95,0.00,,,1.57,Wunderground v.1.15,2013-07-13 02:23:00,
2013-07-12 22:28:00,69.5,68.0,30.00,West,278,0.0,0.0,95,0.00,,,1.57,Wunderground v.1.15,2013-07-13 02:28:00,
2013-07-12 22:34:00,69.7,68.2,30.00,West,279,0.0,0.0,95,0.00,,,1.57,Wunderground v.1.15,2013-07-13 02:34:00,
2013-07-12 22:39:00,69.8,68.3,30.00,WNW,285,0.0,0.0,95,0.00,,,1.57,Wunderground v.1.15,2013-07-13 02:39:00,
2013-07-12 22:45:00,69.8,68.3,30.00,WNW,284,0.0,0.0,95,0.00,,,1.57,Wunderground v.1.15,2013-07-13 02:45:00,
2013-07-12 22:50:00,69.9,68.4,30.00,WNW,284,0.0,0.0,95,0.00,,,1.57,Wunderground v.1.15,2013-07-13 02:50:00,
2013-07-12 22:55:00,69.9,68.4,30.00,West,272,0.0,0.0,95,0.00,,,1.57,Wunderground v.1.15,2013-07-13 02:55:00,
2013-07-12 23:00:00,70.0,68.5,30.00,West,273,0.0,0.0,95,0.00,,,1.57,Wunderground v.1.15,2013-07-13 03:00:00,
2013-07-12 23:05:00,69.9,68.4,30.01,West,273,0.0,0.0,95,0.00,,,1.57,Wunderground v.1.15,2013-07-13 03:05:00,
2013-07-12 23:11:00,69.9,68.4,30.01,West,273,0.0,0.0,95,0.00,,,1.57,Wunderground v.1.15,2013-07-13 03:11:00,
2013-07-12 23:16:00,69.9,68.4,30.01,West,273,0.0,0.0,95,0.00,,,1.57,Wunderground v.1.15,2013-07-13 03:16:00,
2013-07-12 23:21:00,69.9,68.4,30.01,WNW,292,0.0,0.0,95,0.00,,,1.57,Wunderground v.1.15,2013-07-13 03:21:00,
2013-07-12 23:26:00,69.9,68.4,30.01,WNW,282,0.0,0.0,95,0.00,,,1.57,Wunderground v.1.15,2013-07-13 03:26:00,
2013-07-12 23:31:00,69.9,68.4,30.01,WNW,283,0.0,0.0,95,0.00,,,1.57,Wunderground v.1.15,2013-07-13 03:31:00,
2013-07-12 23:36:00,69.9,68.4,30.01,WNW,283,0.0,0.0,95,0.00,,,1.57,Wunderground v.1.15,2013-07-13 03:36:00,
2013-07-12 23:41:00,69.9,68.4,30.01,WNW,282,0.0,0.0,95,0.00,,,1.57,Wunderground v.1.15,2013-07-13 03:41:00,
2013-07-12 23:46:00,69.9,68.4,30.01,West,275,0.0,0.0,95,0.00,,,1.57,Wunderground v.1.15,2013-07-13 03:46:00,
2013-07-12 23:52:00,69.8,68.3,30.01,West,281,0.0,0.0,95,0.00,,,1.57,Wunderground v.1.15,2013-07-13 03:52:00,
2013-07-12 23:57:00,69.8,68.0,30.01,West,281,0.0,0.0,94,0.00,,,1.57,Wunderground v.1.15,2013-07-13 03:57:00,